UP1225 LCLK-UBBB
Flight info
| Callsign | UP1225 |
|---|---|
| Flight time | 2h 9m |
| Altitude | 40000 |
| Route | RUDER M13 BAPAX DCT GAZ/N0455F390 UW716 DYB UW73 BAYIR UM688 ULTED UT36 DERIL UG8 ALRAM G208 UMH A422 PARSU N59 INSAN |
| Aircraft | B38M/M-SDE1FGHILORVWXY/LB1D1 |
Departure
| Time | 2025-09-05 10:39 |
|---|---|
| Airport | Larnaca International Airport (LCLK) |
Arrival
| Time | 2025-09-05 12:48 |
|---|---|
| Airport | Heydar Aliyev International Airport (UBBB) |
| Time | Latitude | Longitude | Altitude | Speed | Heading |
|---|---|---|---|---|---|
| 2025-09-05 10:16 | 34.88420 | 33.62981 | 18 ft | 0 kts | 225° |
| 2025-09-05 10:30 | 34.88415 | 33.62976 | 21 ft | 3 kts | 225° |
| 2025-09-05 10:30 | 34.88345 | 33.62978 | 18 ft | 9 kts | 138° |
| 2025-09-05 10:31 | 34.88297 | 33.63034 | 18 ft | 4 kts | 135° |
| 2025-09-05 10:32 | 34.88323 | 33.63186 | 20 ft | 12 kts | 45° |
| 2025-09-05 10:32 | 34.88345 | 33.63213 | 20 ft | 2 kts | 46° |
| 2025-09-05 10:32 | 34.88366 | 33.63240 | 19 ft | 7 kts | 46° |
| 2025-09-05 10:33 | 34.88431 | 33.63320 | 20 ft | 0 kts | 45° |
| 2025-09-05 10:34 | 34.88448 | 33.63385 | 21 ft | 11 kts | 104° |
| 2025-09-05 10:34 | 34.88411 | 33.63431 | 22 ft | 0 kts | 143° |
| 2025-09-05 10:36 | 34.88332 | 33.63506 | 20 ft | 17 kts | 158° |
| 2025-09-05 10:36 | 34.88193 | 33.63390 | 19 ft | 0 kts | 225° |
| 2025-09-05 10:37 | 34.87415 | 33.62445 | 28 ft | 173 kts | 223° |
| 2025-09-05 10:38 | 34.85385 | 33.59786 | 1622 ft | 236 kts | 226° |
| 2025-09-05 10:38 | 34.82990 | 33.56598 | 3436 ft | 287 kts | 225° |
| 2025-09-05 10:39 | 34.79409 | 33.54488 | 6265 ft | 289 kts | 176° |
| 2025-09-05 10:40 | 34.74866 | 33.59102 | 9563 ft | 305 kts | 135° |
| 2025-09-05 10:40 | 34.73405 | 33.60969 | 9778 ft | 305 kts | 136° |
| 2025-09-05 10:40 | 34.70464 | 33.64706 | 9866 ft | 308 kts | 124° |
| 2025-09-05 10:41 | 34.70169 | 33.69660 | 9878 ft | 309 kts | 63° |
| 2025-09-05 10:41 | 34.72756 | 33.73775 | 9881 ft | 307 kts | 56° |
| 2025-09-05 10:42 | 34.75201 | 33.78165 | 10900 ft | 323 kts | 54° |
| 2025-09-05 10:42 | 34.77887 | 33.82818 | 12825 ft | 344 kts | 53° |
| 2025-09-05 10:43 | 34.80717 | 33.87641 | 14737 ft | 357 kts | 53° |
| 2025-09-05 10:43 | 34.83669 | 33.92654 | 16461 ft | 371 kts | 52° |
| 2025-09-05 10:44 | 34.86733 | 33.97860 | 18138 ft | 384 kts | 52° |
| 2025-09-05 10:44 | 34.89871 | 34.03200 | 19594 ft | 394 kts | 53° |
| 2025-09-05 10:45 | 34.93135 | 34.08650 | 21068 ft | 402 kts | 46° |
| 2025-09-05 10:45 | 34.97807 | 34.12215 | 22459 ft | 402 kts | 17° |
| 2025-09-05 10:46 | 35.02318 | 34.16260 | 23775 ft | 418 kts | 55° |
| 2025-09-05 10:46 | 35.05127 | 34.22582 | 24838 ft | 428 kts | 58° |
| 2025-09-05 10:49 | 35.21542 | 34.50256 | 29606 ft | 467 kts | 54° |
| 2025-09-05 10:50 | 35.35544 | 34.73284 | 32448 ft | 496 kts | 53° |
| 2025-09-05 10:53 | 35.54588 | 35.04854 | 35446 ft | 526 kts | 52° |
| 2025-09-05 10:55 | 35.71977 | 35.33939 | 38582 ft | 527 kts | 53° |
| 2025-09-05 10:57 | 35.89128 | 35.62863 | 40281 ft | 518 kts | 53° |
| 2025-09-05 10:59 | 36.06089 | 35.91705 | 39876 ft | 520 kts | 53° |
| 2025-09-05 11:01 | 36.23046 | 36.20785 | 39846 ft | 522 kts | 53° |
| 2025-09-05 11:03 | 36.39924 | 36.49974 | 39837 ft | 522 kts | 53° |
| 2025-09-05 11:05 | 36.56750 | 36.79325 | 39857 ft | 521 kts | 53° |
| 2025-09-05 11:07 | 36.73527 | 37.08847 | 39892 ft | 522 kts | 53° |
| 2025-09-05 11:09 | 36.90217 | 37.38471 | 39941 ft | 523 kts | 54° |
| 2025-09-05 11:11 | 37.03519 | 37.70733 | 39929 ft | 524 kts | 66° |
| 2025-09-05 11:13 | 37.15466 | 38.04008 | 39935 ft | 525 kts | 66° |
| 2025-09-05 11:15 | 37.27322 | 38.37532 | 39957 ft | 526 kts | 66° |
| 2025-09-05 11:17 | 37.39090 | 38.71139 | 39961 ft | 526 kts | 66° |
| 2025-09-05 11:19 | 37.50545 | 39.05101 | 39974 ft | 527 kts | 68° |
| 2025-09-05 11:21 | 37.61179 | 39.37859 | 39953 ft | 526 kts | 68° |
| 2025-09-05 11:22 | 37.70722 | 39.67815 | 39963 ft | 527 kts | 68° |
| 2025-09-05 11:25 | 37.82903 | 40.06519 | 39912 ft | 527 kts | 68° |
| 2025-09-05 11:26 | 37.95588 | 40.34214 | 39896 ft | 524 kts | 50° |
| 2025-09-05 11:29 | 38.15569 | 40.67226 | 39901 ft | 524 kts | 50° |
| 2025-09-05 11:31 | 38.33335 | 40.96584 | 39933 ft | 524 kts | 49° |
| 2025-09-05 11:33 | 38.51074 | 41.26127 | 39987 ft | 525 kts | 50° |
| 2025-09-05 11:34 | 38.50609 | 41.55557 | 39995 ft | 502 kts | 131° |
| 2025-09-05 11:37 | 38.34135 | 41.89382 | 40030 ft | 519 kts | 106° |
| 2025-09-05 11:38 | 38.29266 | 42.21012 | 40041 ft | 520 kts | 105° |
| 2025-09-05 11:41 | 38.23000 | 42.61643 | 40083 ft | 522 kts | 105° |
| 2025-09-05 11:42 | 38.18046 | 42.93056 | 41100 ft | 516 kts | 105° |
| 2025-09-05 11:45 | 38.11587 | 43.33223 | 41154 ft | 514 kts | 105° |
| 2025-09-05 11:46 | 38.02028 | 43.62021 | 41166 ft | 505 kts | 120° |
| 2025-09-05 11:49 | 37.89041 | 43.98392 | 41183 ft | 504 kts | 120° |
| 2025-09-05 11:50 | 37.78854 | 44.26618 | 41146 ft | 502 kts | 120° |
| 2025-09-05 11:53 | 37.70759 | 44.65011 | 41127 ft | 514 kts | 96° |
| 2025-09-05 11:54 | 37.69288 | 44.96536 | 41060 ft | 516 kts | 96° |
| 2025-09-05 11:57 | 37.76989 | 45.35835 | 41030 ft | 522 kts | 69° |
| 2025-09-05 11:58 | 37.85961 | 45.65898 | 41019 ft | 523 kts | 69° |
| 2025-09-05 12:01 | 38.00740 | 46.01830 | 41065 ft | 515 kts | 44° |
| 2025-09-05 12:02 | 38.17960 | 46.24844 | 41104 ft | 514 kts | 39° |
| 2025-09-05 12:05 | 38.41216 | 46.52947 | 41094 ft | 516 kts | 40° |
| 2025-09-05 12:06 | 38.59361 | 46.74951 | 41066 ft | 517 kts | 39° |
| 2025-09-05 12:09 | 38.82827 | 47.03541 | 41029 ft | 517 kts | 39° |
| 2025-09-05 12:10 | 39.01018 | 47.25874 | 41013 ft | 519 kts | 39° |
| 2025-09-05 12:12 | 39.21869 | 47.51677 | 40930 ft | 520 kts | 39° |
| 2025-09-05 12:14 | 39.41835 | 47.76598 | 40895 ft | 521 kts | 39° |
| 2025-09-05 12:16 | 39.61500 | 48.04828 | 34887 ft | 543 kts | 56° |
| 2025-09-05 12:18 | 39.75434 | 48.39496 | 26828 ft | 533 kts | 60° |
| 2025-09-05 12:20 | 39.83558 | 48.60009 | 23180 ft | 494 kts | 61° |
| 2025-09-05 12:20 | 39.85117 | 48.63963 | 22353 ft | 488 kts | 61° |
| 2025-09-05 12:20 | 39.88164 | 48.71704 | 20922 ft | 473 kts | 61° |
| 2025-09-05 12:21 | 39.91115 | 48.79220 | 19538 ft | 460 kts | 61° |
| 2025-09-05 12:21 | 39.93993 | 48.86568 | 18194 ft | 450 kts | 61° |
| 2025-09-05 12:22 | 39.96783 | 48.93708 | 16789 ft | 439 kts | 62° |
| 2025-09-05 12:22 | 39.99512 | 49.00709 | 15504 ft | 428 kts | 62° |
| 2025-09-05 12:23 | 40.02176 | 49.07554 | 14272 ft | 418 kts | 62° |
| 2025-09-05 12:24 | 40.06040 | 49.17570 | 12707 ft | 397 kts | 62° |
| 2025-09-05 12:24 | 40.07255 | 49.20725 | 12540 ft | 381 kts | 62° |
| 2025-09-05 12:24 | 40.09553 | 49.26705 | 12177 ft | 356 kts | 62° |
| 2025-09-05 12:25 | 40.11499 | 49.32386 | 11849 ft | 334 kts | 79° |
| 2025-09-05 12:25 | 40.11850 | 49.38401 | 11066 ft | 331 kts | 85° |
| 2025-09-05 12:26 | 40.12163 | 49.44342 | 10355 ft | 325 kts | 85° |
| 2025-09-05 12:26 | 40.12460 | 49.50071 | 9663 ft | 304 kts | 85° |
| 2025-09-05 12:27 | 40.12738 | 49.55465 | 9035 ft | 294 kts | 86° |
| 2025-09-05 12:28 | 40.13087 | 49.63324 | 8274 ft | 282 kts | 85° |
| 2025-09-05 12:28 | 40.13239 | 49.65858 | 7929 ft | 278 kts | 85° |
| 2025-09-05 12:28 | 40.13504 | 49.70751 | 7336 ft | 253 kts | 85° |
| 2025-09-05 12:29 | 40.13734 | 49.75235 | 7072 ft | 248 kts | 85° |
| 2025-09-05 12:29 | 40.13374 | 49.79737 | 6556 ft | 249 kts | 117° |
| 2025-09-05 12:30 | 40.10808 | 49.82452 | 6671 ft | 241 kts | 156° |
| 2025-09-05 12:30 | 40.07755 | 49.84312 | 6642 ft | 242 kts | 149° |
| 2025-09-05 12:31 | 40.05519 | 49.87548 | 6886 ft | 244 kts | 122° |
| 2025-09-05 12:31 | 40.03825 | 49.91374 | 7017 ft | 245 kts | 118° |
| 2025-09-05 12:32 | 40.01643 | 49.97627 | 6991 ft | 273 kts | 97° |
| 2025-09-05 12:32 | 40.01432 | 50.00148 | 6978 ft | 283 kts | 96° |
| 2025-09-05 12:33 | 40.01011 | 50.05227 | 7011 ft | 270 kts | 95° |
| 2025-09-05 12:33 | 40.00668 | 50.09857 | 7001 ft | 245 kts | 88° |
| 2025-09-05 12:34 | 40.01380 | 50.14150 | 7031 ft | 243 kts | 75° |
| 2025-09-05 12:34 | 40.02185 | 50.18415 | 7011 ft | 236 kts | 75° |
| 2025-09-05 12:35 | 40.02927 | 50.22330 | 6997 ft | 209 kts | 74° |
| 2025-09-05 12:36 | 40.05015 | 50.26979 | 7039 ft | 197 kts | 54° |
| 2025-09-05 12:36 | 40.05777 | 50.28474 | 7031 ft | 198 kts | 54° |
| 2025-09-05 12:36 | 40.07324 | 50.31447 | 7003 ft | 197 kts | 48° |
| 2025-09-05 12:37 | 40.09737 | 50.32358 | 6691 ft | 188 kts | 340° |
| 2025-09-05 12:37 | 40.11830 | 50.30370 | 6441 ft | 188 kts | 317° |
| 2025-09-05 12:38 | 40.13738 | 50.28048 | 6058 ft | 187 kts | 316° |
| 2025-09-05 12:38 | 40.15590 | 50.25729 | 5663 ft | 182 kts | 316° |
| 2025-09-05 12:39 | 40.17424 | 50.23397 | 5351 ft | 187 kts | 316° |
| 2025-09-05 12:40 | 40.20173 | 50.19874 | 4895 ft | 178 kts | 316° |
| 2025-09-05 12:40 | 40.21889 | 50.17664 | 4529 ft | 168 kts | 316° |
| 2025-09-05 12:40 | 40.22710 | 50.16606 | 4362 ft | 163 kts | 316° |
| 2025-09-05 12:41 | 40.24309 | 50.14545 | 4098 ft | 163 kts | 317° |
| 2025-09-05 12:41 | 40.25924 | 50.12460 | 3851 ft | 162 kts | 317° |
| 2025-09-05 12:42 | 40.27525 | 50.10390 | 3481 ft | 161 kts | 317° |
| 2025-09-05 12:42 | 40.29121 | 50.08329 | 3099 ft | 161 kts | 317° |
| 2025-09-05 12:43 | 40.30880 | 50.06673 | 2717 ft | 153 kts | 348° |
| 2025-09-05 12:44 | 40.33685 | 50.06495 | 2269 ft | 127 kts | 4° |
| 2025-09-05 12:44 | 40.34557 | 50.06486 | 2119 ft | 124 kts | 4° |
| 2025-09-05 12:44 | 40.36277 | 50.06494 | 1800 ft | 124 kts | 4° |
| 2025-09-05 12:45 | 40.38012 | 50.06436 | 1329 ft | 126 kts | 0° |
| 2025-09-05 12:46 | 40.40586 | 50.06360 | 889 ft | 121 kts | 6° |
| 2025-09-05 12:46 | 40.41437 | 50.06398 | 776 ft | 119 kts | 8° |
| 2025-09-05 12:46 | 40.43062 | 50.06427 | 580 ft | 116 kts | 2° |
| 2025-09-05 12:47 | 40.44685 | 50.06403 | 268 ft | 117 kts | 2° |
| 2025-09-05 12:48 | 40.46676 | 50.06310 | 17 ft | 35 kts | 359° |
| 2025-09-05 12:48 | 40.46894 | 50.06306 | 15 ft | 36 kts | 359° |
| 2025-09-05 12:49 | 40.47557 | 50.06165 | 15 ft | 0 kts | 315° |
| 2025-09-05 12:50 | 40.47562 | 50.06156 | 16 ft | 2 kts | 303° |
| 2025-09-05 12:50 | 40.47542 | 50.06089 | 17 ft | 8 kts | 189° |
| 2025-09-05 12:51 | 40.47225 | 50.06091 | 17 ft | 23 kts | 179° |
| 2025-09-05 12:51 | 40.47053 | 50.06092 | 17 ft | 27 kts | 180° |
| 2025-09-05 12:52 | 40.46715 | 50.06099 | 17 ft | 9 kts | 179° |
| 2025-09-05 12:53 | 40.46567 | 50.05979 | 18 ft | 11 kts | 223° |
| 2025-09-05 12:53 | 40.46545 | 50.05964 | 17 ft | 2 kts | 192° |
| 2025-09-05 12:53 | 40.46493 | 50.05958 | 17 ft | 7 kts | 178° |
| 2025-09-05 12:54 | 40.46407 | 50.05884 | 17 ft | 8 kts | 284° |
| 2025-09-05 12:54 | 40.46393 | 50.05835 | 18 ft | 5 kts | 196° |
| 2025-09-05 12:55 | 40.46361 | 50.05833 | 17 ft | 0 kts | 180° |